createdAt,value
2022-09-01T00:04:01.036Z,98800.6
2022-09-01T00:09:36.389Z,98794.7
2022-09-01T00:15:11.141Z,98790
2022-09-01T00:20:45.743Z,98778.5
2022-09-01T00:26:20.552Z,98778.3
2022-09-01T00:31:55.302Z,98772.8
2022-09-01T00:37:30.150Z,98770.1
2022-09-01T00:43:05.169Z,98763.3
2022-09-01T00:48:43.321Z,98762.8
2022-09-01T00:54:18.132Z,98759.1
2022-09-01T00:59:54.326Z,98756.4
2022-09-01T01:05:29.022Z,98752.2
2022-09-01T01:11:04.166Z,98760.1
2022-09-01T01:16:39.444Z,98764.8
2022-09-01T01:22:15.588Z,98762.6
2022-09-01T01:27:50.727Z,98759.9
2022-09-01T01:33:25.853Z,98758.3
2022-09-01T01:39:01.046Z,98761.4
2022-09-01T01:44:36.845Z,98756.1
2022-09-01T01:50:11.858Z,98752.5
2022-09-01T01:55:47.929Z,98749.4
2022-09-01T02:01:24.461Z,98745.8
2022-09-01T02:07:00.230Z,98742
2022-09-01T02:12:35.026Z,98741.4
2022-09-01T02:18:11.189Z,98735.6
2022-09-01T02:23:45.955Z,98732.4
2022-09-01T02:29:44.133Z,98733.4
2022-09-01T02:35:18.114Z,98735.6
2022-09-01T02:40:52.912Z,98735.1
2022-09-01T02:46:27.606Z,98732.5
2022-09-01T02:52:03.758Z,98731.5
2022-09-01T02:57:38.422Z,98732.3
2022-09-01T03:03:15.211Z,98732.8
2022-09-01T03:08:49.960Z,98721.8
2022-09-01T03:14:24.734Z,98720
2022-09-01T03:19:59.569Z,98713.7
2022-09-01T03:25:34.476Z,98708
2022-09-01T03:31:32.387Z,98704.9
2022-09-01T03:37:06.730Z,98703.9
2022-09-01T03:42:41.435Z,98706.6
2022-09-01T03:48:16.630Z,98704.1
2022-09-01T03:53:51.942Z,98695.1
2022-09-01T03:59:27.081Z,98687.4
2022-09-01T04:05:08.826Z,98685
2022-09-01T04:10:44.693Z,98681.8
2022-09-01T04:16:21.020Z,98677.2
2022-09-01T04:21:56.249Z,98670.5
2022-09-01T04:27:31.108Z,98662.6
2022-09-01T04:33:06.072Z,98658.9
2022-09-01T04:38:41.119Z,98655.5
2022-09-01T04:44:15.927Z,98656.6
2022-09-01T04:49:51.690Z,98650.5
2022-09-01T04:55:26.514Z,98640.8
2022-09-01T05:01:01.705Z,98629.2
2022-09-01T05:06:37.552Z,98633.3
2022-09-01T05:12:16.593Z,98633.7
2022-09-01T05:17:51.525Z,98636.8
2022-09-01T05:23:26.420Z,98634.4
2022-09-01T05:29:23.016Z,98622.6
2022-09-01T05:34:57.891Z,98615.4
2022-09-01T05:40:33.213Z,98618
2022-09-01T05:46:08.734Z,98619
2022-09-01T05:51:51.496Z,98613.3
2022-09-01T05:57:35.732Z,98605.2
2022-09-01T06:03:11.880Z,98611.3
2022-09-01T06:08:48.547Z,98606
2022-09-01T06:14:24.500Z,98605.5
2022-09-01T06:19:59.304Z,98609.5
2022-09-01T06:25:34.114Z,98612.4
2022-09-01T06:31:31.326Z,98611.7
2022-09-01T06:37:04.493Z,98605.3
2022-09-01T06:42:39.799Z,98603.2
2022-09-01T06:48:14.608Z,98601.2
2022-09-01T06:53:50.429Z,98601.4
2022-09-01T06:59:35.099Z,98604
2022-09-01T07:49:52.557Z,98604.9
2022-09-01T07:57:09.276Z,98601.5
2022-09-01T08:02:44.499Z,98597.2
2022-09-01T08:08:30.249Z,98598.3
2022-09-01T08:14:06.814Z,98596.9
2022-09-01T08:19:44.400Z,98600.7
2022-09-01T08:25:25.720Z,98605.5
2022-09-01T08:31:22.822Z,98599.1
2022-09-01T08:36:56.269Z,98600.6
2022-09-01T08:42:33.574Z,98604.1
2022-09-01T08:49:27.712Z,98599.4
2022-09-01T08:55:06.280Z,98595.3
2022-09-01T09:00:41.403Z,98596.7
2022-09-01T09:06:16.248Z,98599.8
2022-09-01T09:11:51.539Z,98603.5
2022-09-01T09:17:26.862Z,98604.5
2022-09-01T09:23:04.314Z,98601.3
2022-09-01T09:29:00.985Z,98599.6
2022-09-01T09:34:33.673Z,98598.3
2022-09-01T09:40:10.964Z,98599.6
2022-09-01T09:45:46.184Z,98599.1
2022-09-01T09:51:23.640Z,98599.1
2022-09-01T09:56:58.879Z,98594.1
2022-09-01T10:02:34.981Z,98586.1
2022-09-01T10:08:10.450Z,98585.2
2022-09-01T10:13:46.356Z,98577.8
2022-09-01T10:19:21.743Z,98579.5
2022-09-01T10:24:56.866Z,98577.8
2022-09-01T10:30:33.310Z,98565.7
2022-09-01T10:36:09.769Z,98561.9
2022-09-01T10:41:45.219Z,98556.1
2022-09-01T10:47:21.770Z,98546.5
2022-09-01T10:52:58.012Z,98538.6
2022-09-01T10:59:38.931Z,98528.9
2022-09-01T11:05:33.812Z,98526.7
2022-09-01T11:11:09.886Z,98515.2
2022-09-01T11:16:49.981Z,98511.8
2022-09-01T11:22:27.902Z,98506.3
2022-09-01T11:28:25.168Z,98503.5
2022-09-01T11:34:00.986Z,98503.1
2022-09-01T11:39:37.637Z,98497
2022-09-01T11:45:22.230Z,98492.1
2022-09-01T11:50:57.429Z,98482
2022-09-01T11:56:32.562Z,98474.8
2022-09-01T12:02:09.266Z,98472.2
2022-09-01T12:07:44.926Z,98471
2022-09-01T12:13:21.080Z,98467.6
2022-09-01T12:18:56.934Z,98473.1
2022-09-01T12:24:31.741Z,98462.5
2022-09-01T12:30:29.357Z,98454.3
2022-09-01T12:36:03.085Z,98455.7
2022-09-01T12:41:40.106Z,98450.5
2022-09-01T12:47:15.325Z,98438.6
2022-09-01T12:52:53.024Z,98438.4
2022-09-01T12:58:27.998Z,98432.4
2022-09-01T13:04:02.882Z,98425.9
2022-09-01T13:09:37.736Z,98425.6
2022-09-01T13:15:15.967Z,98422
2022-09-01T13:20:51.234Z,98417.9
2022-09-01T13:26:26.099Z,98408.7
2022-09-01T13:32:31.618Z,98399.7
2022-09-01T13:38:07.310Z,98398.4
2022-09-01T13:50:12.138Z,98381.6
2022-09-01T13:56:03.979Z,98374.7
2022-09-01T14:01:39.015Z,98377.2
2022-09-01T14:07:14.082Z,98363.3
2022-09-01T14:12:49.337Z,98354.3
2022-09-01T14:18:25.174Z,98351.4
2022-09-01T14:24:00.506Z,98343.7
2022-09-01T14:29:36.341Z,98348
2022-09-01T14:35:11.238Z,98342.9
2022-09-01T14:40:46.626Z,98345.7
2022-09-01T14:46:22.331Z,98344.1
2022-09-01T14:52:13.719Z,98345.8
2022-09-01T14:57:48.810Z,98338.8
2022-09-01T15:03:25.138Z,98333.8
2022-09-01T15:09:02.449Z,98332.5
2022-09-01T15:14:37.475Z,98325.3
2022-09-01T15:20:12.457Z,98322.3
2022-09-01T15:25:47.124Z,98316.6
2022-09-01T15:31:33.547Z,98316.2
2022-09-01T15:37:09.109Z,98312.3
2022-09-01T15:42:43.846Z,98308.4
2022-09-01T15:48:18.823Z,98307.2
2022-09-01T15:53:55.695Z,98303.6
2022-09-01T15:59:32.286Z,98293
2022-09-01T16:05:09.447Z,98296.4
2022-09-01T16:10:49.618Z,98290.6
2022-09-01T16:16:42.937Z,98290.6
2022-09-01T16:22:22.587Z,98283.2
2022-09-01T16:28:19.498Z,98278.5
2022-09-01T16:33:52.727Z,98282.5
2022-09-01T16:39:27.888Z,98285.2
2022-09-01T16:45:03.051Z,98282.4
2022-09-01T16:50:38.184Z,98278.1
2022-09-01T16:56:12.891Z,98276.4
2022-09-01T17:01:48.501Z,98272
2022-09-01T17:07:30.081Z,98273.6
2022-09-01T17:13:05.127Z,98275.1
2022-09-01T17:18:39.687Z,98268.7
2022-09-01T17:24:14.702Z,98265.4
2022-09-01T17:30:11.229Z,98272.3
2022-09-01T17:35:43.860Z,98271.6
2022-09-01T17:41:19.820Z,98270.3
2022-09-01T17:46:55.119Z,98269.4
2022-09-01T17:52:30.263Z,98268.5
2022-09-01T18:05:07.248Z,98286
2022-09-01T18:10:40.411Z,98282
2022-09-01T18:16:15.740Z,98290.1
2022-09-01T18:21:51.763Z,98289.3
2022-09-01T18:27:34.014Z,98299.1
2022-09-01T18:33:09.133Z,98305.8
2022-09-01T18:38:46.499Z,98309.6
2022-09-01T18:44:21.426Z,98317.9
2022-09-01T18:50:01.498Z,98324.6
2022-09-01T18:55:36.722Z,98327.5
2022-09-01T19:01:13.739Z,98332.6
2022-09-01T19:06:51.277Z,98347.2
2022-09-01T19:12:26.012Z,98351.2
2022-09-01T19:18:01.743Z,98351.6
2022-09-01T19:23:37.982Z,98347.9
2022-09-01T19:29:12.845Z,98351.9
2022-09-01T19:34:47.638Z,98360.1
2022-09-01T19:40:26.215Z,98377
2022-09-01T19:46:04.216Z,98394.4
2022-09-01T19:51:40.115Z,98398.3
2022-09-01T19:57:15.839Z,98413.7
2022-09-01T20:03:13.557Z,98421.1
2022-09-01T20:08:47.816Z,98428
2022-09-01T20:14:22.576Z,98437.3
2022-09-01T20:19:57.578Z,98442.8
2022-09-01T20:25:33.969Z,98441.5
2022-09-01T20:31:09.240Z,98448.2
2022-09-01T20:36:44.727Z,98446.3
2022-09-01T20:42:19.415Z,98453.7
2022-09-01T20:47:54.344Z,98454
2022-09-01T20:53:33.215Z,98464.2
2022-09-01T20:59:08.101Z,98462.7
2022-09-01T21:05:04.739Z,98458.7
2022-09-01T21:10:37.449Z,98463.5
2022-09-01T21:16:12.349Z,98465.8
2022-09-01T21:21:48.979Z,98460.3
2022-09-01T21:27:23.963Z,98476
2022-09-01T21:32:58.801Z,98486.4
2022-09-01T21:38:33.600Z,98486.3
2022-09-01T21:44:08.578Z,98491.6
2022-09-01T21:49:43.453Z,98481.5
2022-09-01T21:55:23.562Z,98484.8
2022-09-01T22:00:59.077Z,98487.1
2022-09-01T22:06:34.371Z,98486.3
2022-09-01T22:12:09.992Z,98486.1
2022-09-01T22:17:44.819Z,98488.9
2022-09-01T22:23:20.046Z,98482.7
2022-09-01T22:28:56.031Z,98490.8
2022-09-01T22:34:30.794Z,98503.5
2022-09-01T22:40:06.436Z,98503.9
2022-09-01T22:45:42.215Z,98503
2022-09-01T22:51:17.734Z,98504.8
2022-09-01T22:56:59.854Z,98499.6
2022-09-01T23:02:56.319Z,98497.1
2022-09-01T23:08:29.019Z,98502.4
2022-09-01T23:14:04.199Z,98500.2
2022-09-01T23:19:40.103Z,98496.5
2022-09-01T23:25:14.899Z,98491.7
2022-09-01T23:30:50.083Z,98492.1
2022-09-01T23:36:25.708Z,98478.6
2022-09-01T23:42:00.482Z,98481.4
2022-09-01T23:47:35.482Z,98475.3
2022-09-01T23:53:11.278Z,98471.4
2022-09-01T23:58:46.240Z,98464.7
